Time;durP1;ratioP1;P1;durP2;ratioP2;P2;SDS_P1;SDS_P2;PMS_P1;PMS_P2;Temp;Humidity;BMP_temperature;BMP_pressure;BME280_temperature;BME280_humidity;BME280_pressure;Samples;Min_cycle;Max_cycle;Signal;HPM_P1;HPM_P2
2022/10/13 00:00:32;;;;;;;13.87;9.47;;;10.90;99.70;;;;;;931520;149;27375;-80
2022/10/13 00:03:01;;;;;;;15.83;9.20;;;10.90;99.90;;;;;;931487;151;27358;-80
2022/10/13 00:05:27;;;;;;;19.00;8.67;;;10.90;99.90;;;;;;931783;152;27332;-80
2022/10/13 00:07:54;;;;;;;19.90;8.90;;;10.90;99.90;;;;;;930611;151;27323;-80
2022/10/13 00:10:21;;;;;;;18.73;9.10;;;11.00;99.90;;;;;;930611;151;27372;-79
2022/10/13 00:12:47;;;;;;;13.77;8.57;;;11.00;99.90;;;;;;930172;152;27385;-79
2022/10/13 00:15:15;;;;;;;13.07;9.00;;;11.00;99.90;;;;;;930667;150;27328;-80
2022/10/13 00:17:41;;;;;;;26.63;9.73;;;11.00;99.90;;;;;;931242;151;27371;-80
2022/10/13 00:20:08;;;;;;;21.43;9.67;;;11.00;99.90;;;;;;929162;152;27344;-79
2022/10/13 00:22:35;;;;;;;23.17;10.17;;;11.10;99.90;;;;;;929907;152;27376;-80
2022/10/13 00:25:02;;;;;;;20.50;9.47;;;11.10;99.90;;;;;;930489;149;27307;-80
2022/10/13 00:27:28;;;;;;;34.13;10.57;;;11.20;99.90;;;;;;929302;152;27331;-80
2022/10/13 00:29:55;;;;;;;29.57;9.47;;;11.20;99.90;;;;;;930517;149;27471;-79
2022/10/13 00:32:21;;;;;;;29.47;8.33;;;11.30;99.90;;;;;;929669;150;27451;-80
2022/10/13 00:34:48;;;;;;;20.43;8.20;;;11.30;99.90;;;;;;932296;149;27335;-80
2022/10/13 00:37:14;;;;;;;20.77;7.83;;;11.40;99.90;;;;;;931165;149;27433;-80
2022/10/13 00:39:41;;;;;;;18.63;9.10;;;11.40;99.90;;;;;;932067;152;27392;-79
2022/10/13 00:42:07;;;;;;;16.97;7.63;;;11.40;99.90;;;;;;930750;151;27378;-80
2022/10/13 00:44:59;;;;;;;23.27;7.93;;;11.50;99.90;;;;;;930618;152;28084;-80
2022/10/13 00:47:28;;;;;;;14.00;7.77;;;11.50;99.90;;;;;;930827;152;27395;-80
2022/10/13 00:49:55;;;;;;;7.60;6.90;;;11.40;99.90;;;;;;929401;150;27344;-80
2022/10/13 00:52:21;;;;;;;7.93;7.20;;;11.40;99.90;;;;;;933482;149;27361;-79
2022/10/13 00:54:48;;;;;;;14.43;7.03;;;11.40;99.90;;;;;;932436;151;27364;-79
2022/10/13 00:57:14;;;;;;;11.43;7.10;;;11.40;99.90;;;;;;932782;149;27447;-79
2022/10/13 00:59:41;;;;;;;10.93;7.00;;;11.40;99.90;;;;;;929724;149;27464;-80
2022/10/13 01:02:08;;;;;;;8.13;6.57;;;11.40;99.90;;;;;;928629;152;27683;-79
2022/10/13 01:04:36;;;;;;;11.23;7.40;;;11.40;99.90;;;;;;929497;152;27394;-80
2022/10/13 01:07:01;;;;;;;13.07;7.23;;;11.40;99.90;;;;;;929251;149;27330;-79
2022/10/13 01:09:34;;;;;;;10.60;6.57;;;11.30;99.90;;;;;;928906;151;27433;-80
2022/10/13 01:12:10;;;;;;;10.33;7.00;;;11.30;99.90;;;;;;929450;151;27344;-79
2022/10/13 01:14:38;;;;;;;9.63;6.97;;;11.30;99.90;;;;;;932403;151;27410;-80
2022/10/13 01:17:14;;;;;;;10.83;7.03;;;11.30;99.90;;;;;;927613;148;27359;-80
2022/10/13 01:19:58;;;;;;;11.97;7.57;;;11.30;99.90;;;;;;934978;151;27347;-80
2022/10/13 01:22:28;;;;;;;24.50;8.40;;;11.30;99.90;;;;;;934670;151;27350;-80
2022/10/13 01:25:04;;;;;;;21.57;8.30;;;11.30;99.90;;;;;;928669;148;27277;-80
2022/10/13 01:27:33;;;;;;;15.27;8.07;;;11.30;99.90;;;;;;936079;148;27418;-80
2022/10/13 01:30:05;;;;;;;17.70;8.07;;;11.30;99.90;;;;;;935964;148;27308;-80
2022/10/13 01:33:05;;;;;;;10.60;8.20;;;11.30;99.90;;;;;;938610;148;27350;-80
2022/10/13 01:35:56;;;;;;;18.27;8.23;;;11.40;99.90;;;;;;938236;148;27395;-80
2022/10/13 01:38:25;;;;;;;21.70;7.80;;;11.40;99.90;;;;;;936199;149;27404;-80
2022/10/13 01:41:06;;;;;;;32.77;9.20;;;11.40;99.90;;;;;;936806;148;27407;-79
2022/10/13 01:43:39;;;;;;;19.53;8.40;;;11.40;99.90;;;;;;936928;151;27278;-80
2022/10/13 01:46:24;;;;;;;36.07;10.30;;;11.50;99.90;;;;;;932457;151;27393;-79
2022/10/13 01:48:50;;;;;;;38.53;9.20;;;11.50;99.90;;;;;;934711;148;27379;-80
2022/10/13 01:51:17;;;;;;;24.97;9.40;;;11.50;99.90;;;;;;934765;151;27497;-79
2022/10/13 01:53:44;;;;;;;40.17;8.80;;;11.50;99.90;;;;;;934562;151;27289;-79
2022/10/13 01:56:10;;;;;;;54.57;10.13;;;11.50;99.90;;;;;;934773;151;27359;-79
2022/10/13 01:58:37;;;;;;;36.80;8.80;;;11.60;99.90;;;;;;932948;149;27314;-79
2022/10/13 02:01:21;;;;;;;56.40;9.17;;;11.60;99.90;;;;;;935970;150;27374;-79
2022/10/13 02:04:12;;;;;;;33.20;8.20;;;11.60;99.90;;;;;;934089;151;27361;-79
2022/10/13 02:06:57;;;;;;;7.73;6.67;;;11.60;99.90;;;;;;934927;151;27360;-79
2022/10/13 02:09:27;;;;;;;15.10;6.67;;;11.60;99.90;;;;;;920188;151;27895;-80
2022/10/13 02:11:54;;;;;;;7.50;6.03;;;11.60;99.90;;;;;;935149;151;27395;-79
2022/10/13 02:14:20;;;;;;;6.97;6.03;;;11.60;99.90;;;;;;930167;151;27387;-79
2022/10/13 02:16:47;;;;;;;7.10;6.50;;;11.60;99.90;;;;;;929072;151;27435;-79
2022/10/13 02:19:13;;;;;;;6.83;6.23;;;11.60;99.90;;;;;;930171;152;27367;-79
2022/10/13 02:21:40;;;;;;;6.30;5.80;;;11.50;99.90;;;;;;931838;152;27248;-79
2022/10/13 02:24:07;;;;;;;7.37;6.47;;;11.50;99.90;;;;;;930758;152;27372;-79
2022/10/13 02:26:33;;;;;;;6.87;6.20;;;11.50;99.90;;;;;;931066;152;27340;-79
2022/10/13 02:29:00;;;;;;;7.47;6.63;;;11.50;99.90;;;;;;933222;149;27416;-79
2022/10/13 02:31:26;;;;;;;6.17;5.67;;;11.50;99.90;;;;;;932147;150;27372;-79
2022/10/13 02:33:53;;;;;;;6.43;5.93;;;11.40;99.90;;;;;;930919;149;27372;-79
2022/10/13 02:36:19;;;;;;;6.93;6.23;;;11.40;99.90;;;;;;929313;152;27323;-79
2022/10/13 02:38:46;;;;;;;6.43;5.93;;;11.40;99.90;;;;;;931647;149;27383;-79
2022/10/13 02:41:13;;;;;;;7.10;6.47;;;11.40;99.90;;;;;;930537;150;27269;-79
2022/10/13 02:43:39;;;;;;;6.90;6.30;;;11.40;99.90;;;;;;930935;150;27310;-79
2022/10/13 02:46:06;;;;;;;6.27;5.77;;;11.40;99.90;;;;;;929648;150;27419;-79
2022/10/13 02:48:32;;;;;;;7.53;6.23;;;11.50;99.90;;;;;;930106;149;27523;-79
2022/10/13 02:50:59;;;;;;;6.87;6.27;;;11.50;99.90;;;;;;930929;151;27331;-79
2022/10/13 02:53:26;;;;;;;6.60;6.10;;;11.50;99.90;;;;;;929576;152;27486;-79
2022/10/13 02:55:52;;;;;;;6.60;6.00;;;11.50;99.90;;;;;;930855;150;27328;-79
2022/10/13 02:58:19;;;;;;;6.67;6.07;;;11.50;99.90;;;;;;930039;152;28835;-82
2022/10/13 03:00:45;;;;;;;7.00;6.47;;;11.50;99.90;;;;;;930748;152;27372;-82
2022/10/13 03:03:12;;;;;;;6.60;5.97;;;11.50;99.90;;;;;;932955;151;27327;-82
2022/10/13 03:05:38;;;;;;;6.47;5.93;;;11.50;99.90;;;;;;929721;149;27311;-82
2022/10/13 03:08:05;;;;;;;6.67;6.07;;;11.50;99.90;;;;;;929773;152;27344;-80
2022/10/13 03:10:32;;;;;;;7.90;6.53;;;11.50;99.90;;;;;;930980;152;27921;-82
2022/10/13 03:12:58;;;;;;;8.27;6.57;;;11.60;99.90;;;;;;932013;149;27331;-82
2022/10/13 03:15:25;;;;;;;7.10;6.50;;;11.60;99.90;;;;;;930149;150;27348;-82
2022/10/13 03:17:51;;;;;;;8.13;7.10;;;11.60;99.90;;;;;;931606;152;27340;-82
2022/10/13 03:20:18;;;;;;;9.27;6.60;;;11.60;99.90;;;;;;933149;152;27292;-81
2022/10/13 03:22:45;;;;;;;13.13;7.00;;;11.60;99.90;;;;;;931385;149;27452;-80
2022/10/13 03:25:11;;;;;;;6.90;6.20;;;11.60;99.90;;;;;;931554;151;27877;-82
2022/10/13 03:27:38;;;;;;;9.67;7.10;;;11.60;99.90;;;;;;929516;152;27316;-82
2022/10/13 03:30:04;;;;;;;11.10;7.43;;;11.60;99.90;;;;;;930965;152;27725;-81
2022/10/13 03:32:31;;;;;;;8.63;6.60;;;11.60;99.90;;;;;;930455;151;27340;-81
2022/10/13 03:34:58;;;;;;;20.40;7.57;;;11.60;99.90;;;;;;931169;150;27404;-82
2022/10/13 03:37:24;;;;;;;23.73;8.47;;;11.60;99.90;;;;;;930720;149;27387;-82
2022/10/13 03:39:51;;;;;;;18.93;7.80;;;11.60;99.90;;;;;;931531;151;27362;-82
2022/10/13 03:42:17;;;;;;;20.40;7.73;;;11.60;99.90;;;;;;929501;151;27343;-82
2022/10/13 03:44:44;;;;;;;12.47;6.70;;;11.60;99.90;;;;;;930789;152;27297;-82
2022/10/13 03:47:10;;;;;;;13.53;6.87;;;11.70;99.90;;;;;;930129;150;27392;-81
2022/10/13 03:49:37;;;;;;;19.23;7.37;;;11.70;99.90;;;;;;929350;151;27338;-79
2022/10/13 03:52:04;;;;;;;10.23;6.77;;;11.70;99.90;;;;;;930416;152;27365;-82
2022/10/13 03:54:30;;;;;;;15.87;7.00;;;11.70;99.90;;;;;;931546;152;27392;-82
2022/10/13 03:56:57;;;;;;;7.07;6.10;;;11.70;99.90;;;;;;929825;152;27363;-81
2022/10/13 03:59:23;;;;;;;7.83;6.97;;;11.70;99.90;;;;;;931847;149;27409;-82
2022/10/13 04:01:50;;;;;;;9.83;6.93;;;11.70;99.90;;;;;;929368;150;27441;-80
2022/10/13 04:04:17;;;;;;;8.50;6.50;;;11.70;99.90;;;;;;931832;152;27447;-82
2022/10/13 04:06:43;;;;;;;6.63;6.00;;;11.70;99.90;;;;;;929657;152;27277;-80
2022/10/13 04:09:10;;;;;;;6.73;6.10;;;11.70;99.90;;;;;;931292;152;27447;-82
2022/10/13 04:11:36;;;;;;;6.97;6.37;;;11.70;99.90;;;;;;929756;150;27343;-81
2022/10/13 04:14:03;;;;;;;6.90;6.23;;;11.70;99.90;;;;;;930398;151;27447;-80
2022/10/13 04:16:30;;;;;;;7.07;6.40;;;11.70;99.90;;;;;;928751;152;27347;-82
2022/10/13 04:18:59;;;;;;;7.27;6.57;;;11.70;99.90;;;;;;929175;149;27451;-82
2022/10/13 04:21:26;;;;;;;7.47;6.80;;;11.70;99.90;;;;;;929477;152;27340;-82
2022/10/13 04:23:58;;;;;;;6.80;6.20;;;11.70;99.90;;;;;;928823;152;27328;-82
2022/10/13 04:26:22;;;;;;;7.67;6.97;;;11.70;99.90;;;;;;929182;152;27383;-81
2022/10/13 04:28:48;;;;;;;7.17;6.53;;;11.70;99.90;;;;;;931125;149;27372;-82
2022/10/13 04:31:15;;;;;;;7.50;6.80;;;11.70;99.90;;;;;;928981;152;27350;-81
2022/10/13 04:33:43;;;;;;;6.93;6.33;;;11.70;99.90;;;;;;930919;149;27300;-82
2022/10/13 04:36:08;;;;;;;7.10;6.43;;;11.70;99.90;;;;;;930245;149;27263;-81
2022/10/13 04:38:35;;;;;;;12.60;7.50;;;11.80;99.90;;;;;;930912;151;27320;-81
2022/10/13 04:41:04;;;;;;;7.30;6.60;;;11.80;99.90;;;;;;930288;149;27331;-81
2022/10/13 04:43:31;;;;;;;7.87;7.17;;;11.80;99.90;;;;;;929107;152;27376;-82
2022/10/13 04:46:00;;;;;;;7.57;6.87;;;11.80;99.90;;;;;;932027;149;27315;-82
2022/10/13 04:48:27;;;;;;;8.77;7.60;;;11.90;99.90;;;;;;929219;150;27355;-82
2022/10/13 04:51:03;;;;;;;10.97;7.77;;;11.90;99.90;;;;;;932826;149;27291;-82
2022/10/13 04:53:29;;;;;;;12.10;7.93;;;11.90;99.90;;;;;;932366;151;27435;-81
2022/10/13 04:55:56;;;;;;;11.07;7.60;;;11.90;99.90;;;;;;930881;149;27335;-82
2022/10/13 04:58:22;;;;;;;8.20;7.10;;;11.90;99.90;;;;;;932215;152;28458;-82
2022/10/13 05:00:49;;;;;;;22.60;7.20;;;12.00;99.90;;;;;;930249;150;27339;-82
2022/10/13 05:03:16;;;;;;;12.07;7.07;;;12.00;99.90;;;;;;929594;151;27375;-82
2022/10/13 05:05:42;;;;;;;21.70;8.03;;;12.00;99.90;;;;;;931834;149;27268;-82
2022/10/13 05:08:09;;;;;;;12.73;6.87;;;12.00;99.90;;;;;;930762;149;27380;-80
2022/10/13 05:10:35;;;;;;;16.47;7.87;;;12.00;99.90;;;;;;929890;152;27379;-82
2022/10/13 05:13:02;;;;;;;13.30;7.13;;;12.00;99.90;;;;;;928344;152;27322;-82
2022/10/13 05:15:28;;;;;;;20.40;6.80;;;12.00;99.90;;;;;;932113;151;27389;-82
2022/10/13 05:17:55;;;;;;;19.57;7.10;;;12.00;99.90;;;;;;935710;151;27301;-82
2022/10/13 05:20:22;;;;;;;20.70;7.50;;;12.00;99.90;;;;;;934465;151;27611;-80
2022/10/13 05:22:48;;;;;;;12.07;7.30;;;12.00;99.90;;;;;;934587;148;27361;-82
2022/10/13 05:25:15;;;;;;;18.73;7.80;;;12.00;99.90;;;;;;935516;151;27373;-82
2022/10/13 05:27:41;;;;;;;21.43;7.77;;;12.00;99.90;;;;;;934318;151;27309;-82
2022/10/13 05:30:08;;;;;;;19.40;7.93;;;12.00;99.90;;;;;;932874;149;27335;-82
2022/10/13 05:32:35;;;;;;;18.03;7.97;;;12.00;99.90;;;;;;935630;148;27298;-81
2022/10/13 05:35:01;;;;;;;29.90;7.80;;;12.00;99.90;;;;;;934133;148;27430;-82
2022/10/13 05:37:28;;;;;;;24.57;7.47;;;12.00;99.90;;;;;;934612;151;28360;-82
2022/10/13 05:39:54;;;;;;;18.47;7.30;;;12.00;99.90;;;;;;936198;148;27455;-82
2022/10/13 05:42:21;;;;;;;16.97;7.83;;;12.00;99.90;;;;;;936734;150;27297;-82
2022/10/13 05:44:48;;;;;;;20.80;8.27;;;12.00;99.90;;;;;;933951;151;27322;-81
2022/10/13 05:47:14;;;;;;;38.57;8.47;;;12.00;99.90;;;;;;934388;148;27415;-82
2022/10/13 05:49:41;;;;;;;24.13;8.83;;;12.00;99.90;;;;;;935499;151;27334;-82
2022/10/13 05:52:08;;;;;;;23.57;8.03;;;12.00;99.90;;;;;;935598;151;27421;-82
2022/10/13 05:54:37;;;;;;;29.93;8.63;;;12.00;99.90;;;;;;934724;148;27401;-81
2022/10/13 05:57:06;;;;;;;17.67;8.37;;;12.00;99.90;;;;;;934417;151;27420;-80
2022/10/13 05:59:33;;;;;;;16.10;8.00;;;12.00;99.90;;;;;;933861;151;28069;-81
2022/10/13 06:01:59;;;;;;;21.10;8.67;;;12.00;99.90;;;;;;935253;148;27409;-82
2022/10/13 06:04:26;;;;;;;19.00;8.13;;;12.00;99.90;;;;;;936084;151;27288;-82
2022/10/13 06:06:52;;;;;;;25.40;8.77;;;12.10;99.90;;;;;;933152;149;27346;-82
2022/10/13 06:09:19;;;;;;;34.07;9.40;;;12.10;99.90;;;;;;935373;148;27833;-80
2022/10/13 06:11:45;;;;;;;25.13;8.60;;;12.10;99.90;;;;;;935008;151;27351;-82
2022/10/13 06:14:12;;;;;;;22.67;8.70;;;12.20;99.90;;;;;;936572;148;27351;-81
2022/10/13 06:16:39;;;;;;;19.70;8.90;;;12.20;99.90;;;;;;931833;149;27548;-82
2022/10/13 06:19:05;;;;;;;24.77;9.40;;;12.20;99.90;;;;;;929927;149;27272;-82
2022/10/13 06:21:32;;;;;;;22.90;9.73;;;12.30;99.90;;;;;;930880;151;27344;-82
2022/10/13 06:23:58;;;;;;;25.03;9.80;;;12.30;99.90;;;;;;929252;149;27356;-80
2022/10/13 06:26:25;;;;;;;27.33;8.90;;;12.40;99.90;;;;;;930713;150;27716;-81
2022/10/13 06:28:52;;;;;;;28.17;9.40;;;12.40;99.90;;;;;;931680;149;27360;-82
2022/10/13 06:31:18;;;;;;;17.90;9.33;;;12.50;99.90;;;;;;931244;150;27433;-82
2022/10/13 06:33:45;;;;;;;37.07;10.27;;;12.50;99.90;;;;;;930425;149;27432;-81
2022/10/13 06:36:11;;;;;;;39.33;10.67;;;12.60;99.90;;;;;;931578;149;27767;-80
2022/10/13 06:38:38;;;;;;;35.60;10.80;;;12.60;99.90;;;;;;930031;152;27441;-82
2022/10/13 06:41:04;;;;;;;30.27;11.43;;;12.70;99.90;;;;;;928571;150;27425;-81
2022/10/13 06:43:31;;;;;;;32.20;10.20;;;12.80;99.90;;;;;;931016;149;27371;-82
2022/10/13 06:45:58;;;;;;;32.27;11.73;;;12.80;99.90;;;;;;931703;150;27395;-81
2022/10/13 06:48:24;;;;;;;22.03;10.27;;;12.90;99.90;;;;;;931481;152;27487;-81
2022/10/13 06:50:51;;;;;;;22.67;11.60;;;13.00;99.90;;;;;;930318;152;27364;-81
2022/10/13 06:53:18;;;;;;;28.60;10.27;;;13.00;99.90;;;;;;929471;152;27509;-82
2022/10/13 06:55:44;;;;;;;36.33;11.37;;;13.10;99.90;;;;;;929068;152;27336;-81
2022/10/13 06:58:11;;;;;;;26.83;10.47;;;13.20;99.90;;;;;;929196;152;27340;-82
2022/10/13 07:00:37;;;;;;;18.10;9.50;;;13.20;99.90;;;;;;930271;152;27321;-82
2022/10/13 07:03:04;;;;;;;19.33;10.47;;;13.30;99.90;;;;;;931418;152;27382;-80
2022/10/13 07:05:30;;;;;;;16.60;9.50;;;13.30;99.90;;;;;;930369;149;27363;-81
2022/10/13 07:07:57;;;;;;;19.57;10.43;;;13.40;99.90;;;;;;929552;149;27310;-82
2022/10/13 07:10:24;;;;;;;14.70;9.87;;;13.50;99.90;;;;;;931470;150;27252;-82
2022/10/13 07:12:50;;;;;;;19.30;10.33;;;13.60;99.90;;;;;;929577;149;27803;-82
2022/10/13 07:15:17;;;;;;;15.50;10.57;;;13.60;99.90;;;;;;930670;152;27506;-80
2022/10/13 07:17:43;;;;;;;11.57;10.37;;;13.70;99.90;;;;;;931307;150;27414;-82
2022/10/13 07:20:10;;;;;;;14.37;9.90;;;13.80;99.90;;;;;;929701;152;27352;-82
2022/10/13 07:22:37;;;;;;;11.23;10.07;;;13.90;99.90;;;;;;931098;150;27319;-81
2022/10/13 07:25:03;;;;;;;12.10;9.20;;;14.00;99.90;;;;;;931022;151;27437;-82
2022/10/13 07:27:30;;;;;;;16.25;10.55;;;14.00;99.90;;;;;;929911;150;27333;-82
2022/10/13 07:29:56;;;;;;;12.87;9.57;;;14.10;99.90;;;;;;930746;149;27472;-82
2022/10/13 07:32:23;;;;;;;11.95;9.78;;;14.20;99.90;;;;;;930001;149;27428;-82
2022/10/13 07:34:49;;;;;;;10.43;9.27;;;14.20;99.90;;;;;;930433;152;27317;-81
2022/10/13 07:37:16;;;;;;;11.05;9.68;;;14.30;99.90;;;;;;930676;149;27339;-82
2022/10/13 07:39:43;;;;;;;11.63;9.67;;;14.40;99.90;;;;;;928991;149;27425;-82
2022/10/13 07:42:09;;;;;;;11.73;9.53;;;14.40;99.90;;;;;;928590;152;27460;-80
2022/10/13 07:44:36;;;;;;;13.48;10.00;;;14.50;99.90;;;;;;930936;152;27483;-82
2022/10/13 07:47:02;;;;;;;11.77;9.10;;;14.60;99.90;;;;;;928883;152;28047;-81
2022/10/13 07:49:29;;;;;;;10.83;9.73;;;14.60;99.90;;;;;;929746;152;27348;-82
2022/10/13 07:51:56;;;;;;;12.47;9.95;;;14.70;99.90;;;;;;931130;150;27307;-82
2022/10/13 07:54:22;;;;;;;10.78;9.68;;;14.80;99.90;;;;;;931321;149;27706;-81
2022/10/13 07:56:51;;;;;;;12.37;10.68;;;14.90;99.90;;;;;;932072;150;27437;-82
2022/10/13 07:59:18;;;;;;;11.47;9.47;;;14.90;99.90;;;;;;930006;149;27400;-81
2022/10/13 08:01:44;;;;;;;10.33;9.23;;;15.10;99.90;;;;;;931093;149;27276;-81
2022/10/13 08:04:11;;;;;;;10.48;9.38;;;15.20;99.90;;;;;;931593;150;27439;-80
2022/10/13 08:06:38;;;;;;;10.80;9.73;;;15.30;99.90;;;;;;930405;149;27360;-82
2022/10/13 08:09:04;;;;;;;12.00;10.30;;;15.40;99.90;;;;;;930424;149;27384;-81
2022/10/13 08:11:31;;;;;;;11.08;9.73;;;15.50;99.90;;;;;;930415;152;27326;-82
2022/10/13 08:14:00;;;;;;;15.50;10.20;;;15.60;99.90;;;;;;928924;150;27837;-81
2022/10/13 08:16:27;;;;;;;10.30;9.15;;;15.70;99.90;;;;;;930636;149;27348;-81
2022/10/13 08:18:53;;;;;;;10.28;9.30;;;15.80;99.90;;;;;;932134;149;27355;-82
2022/10/13 08:21:21;;;;;;;11.38;9.28;;;15.90;99.90;;;;;;931096;152;27635;-80
2022/10/13 08:23:47;;;;;;;10.50;9.48;;;15.90;99.90;;;;;;933447;147;27227;-80
2022/10/13 08:26:16;;;;;;;11.03;9.93;;;16.00;99.90;;;;;;934317;149;27369;-80
2022/10/13 08:28:42;;;;;;;10.60;9.50;;;16.00;99.90;;;;;;935818;147;27355;-80
2022/10/13 08:31:09;;;;;;;11.15;10.05;;;16.10;99.90;;;;;;934403;149;27375;-80
2022/10/13 08:33:36;;;;;;;11.63;9.68;;;16.20;99.90;;;;;;930409;149;27442;-82
2022/10/13 08:36:02;;;;;;;9.43;8.53;;;16.30;99.90;;;;;;929986;149;27313;-82
2022/10/13 08:38:29;;;;;;;9.35;8.45;;;16.40;99.90;;;;;;930918;150;27487;-81
2022/10/13 08:40:55;;;;;;;10.43;9.03;;;16.40;99.90;;;;;;930344;151;27378;-82
2022/10/13 08:43:22;;;;;;;9.45;8.60;;;16.60;99.90;;;;;;930745;151;27280;-81
2022/10/13 08:45:49;;;;;;;9.03;8.13;;;16.70;99.90;;;;;;930257;152;27366;-82
2022/10/13 08:48:15;;;;;;;10.03;9.03;;;16.90;99.90;;;;;;930385;150;27386;-82
2022/10/13 08:50:42;;;;;;;10.30;9.28;;;17.00;99.90;;;;;;930911;151;27335;-82
2022/10/13 08:53:11;;;;;;;9.23;8.33;;;17.20;99.90;;;;;;930119;150;27441;-82
2022/10/13 08:55:41;;;;;;;9.40;8.38;;;17.30;99.90;;;;;;931039;151;27303;-80
2022/10/13 08:58:16;;;;;;;9.18;8.35;;;17.40;99.90;;;;;;930011;152;27372;-82
2022/10/13 09:00:43;;;;;;;9.95;8.95;;;17.50;99.90;;;;;;929876;152;27528;-81
2022/10/13 09:03:24;;;;;;;9.23;8.28;;;17.60;99.90;;;;;;931153;152;27392;-81
2022/10/13 09:06:12;;;;;;;9.00;8.20;;;17.70;99.90;;;;;;931066;149;27362;-82
2022/10/13 09:08:44;;;;;;;9.55;8.25;;;17.70;99.90;;;;;;930174;149;27347;-81
2022/10/13 09:11:11;;;;;;;10.05;8.80;;;17.80;99.90;;;;;;931241;151;27368;-81
2022/10/13 09:13:38;;;;;;;9.88;8.38;;;17.80;99.80;;;;;;931094;152;27439;-81
2022/10/13 09:16:04;;;;;;;10.45;7.70;;;17.90;99.90;;;;;;932592;150;27314;-81
2022/10/13 09:18:31;;;;;;;9.18;8.28;;;18.00;99.90;;;;;;929575;150;27391;-82
2022/10/13 09:21:09;;;;;;;9.50;8.60;;;18.10;99.90;;;;;;930243;152;27337;-81
2022/10/13 09:23:36;;;;;;;10.88;8.35;;;18.30;99.90;;;;;;930419;151;27371;-82
2022/10/13 09:26:03;;;;;;;9.63;8.68;;;18.40;99.20;;;;;;931056;150;28973;-82
2022/10/13 09:28:29;;;;;;;10.00;8.35;;;18.40;98.70;;;;;;931942;152;27450;-82
2022/10/13 09:31:05;;;;;;;9.35;8.38;;;18.50;98.20;;;;;;930403;149;27406;-82
2022/10/13 09:33:34;;;;;;;9.10;8.15;;;18.60;98.10;;;;;;929882;152;27300;-81
2022/10/13 09:36:05;;;;;;;11.03;8.73;;;18.70;97.80;;;;;;930183;152;27366;-81
2022/10/13 09:38:27;;;;;;;10.80;8.35;;;18.70;97.60;;;;;;928527;151;27434;-82
2022/10/13 09:41:05;;;;;;;9.80;8.68;;;18.70;97.60;;;;;;929023;152;27426;-82
2022/10/13 09:43:47;;;;;;;8.88;7.97;;;18.80;97.20;;;;;;929118;149;27321;-81
2022/10/13 09:46:25;;;;;;;9.45;8.55;;;18.90;96.50;;;;;;929892;152;27387;-82
2022/10/13 09:48:52;;;;;;;8.93;8.03;;;18.90;95.90;;;;;;930421;152;27366;-82
2022/10/13 09:51:37;;;;;;;9.13;8.18;;;18.90;95.20;;;;;;932069;151;27339;-82
2022/10/13 09:54:04;;;;;;;8.68;7.80;;;18.90;94.70;;;;;;931453;152;27338;-82
2022/10/13 09:56:39;;;;;;;11.40;9.15;;;18.80;94.20;;;;;;930191;149;27764;-82
2022/10/13 09:59:05;;;;;;;9.35;8.08;;;18.70;93.70;;;;;;930135;149;27366;-82
2022/10/13 10:01:32;;;;;;;8.70;7.70;;;18.60;93.30;;;;;;929580;149;28127;-82
2022/10/13 10:03:58;;;;;;;9.90;8.40;;;18.50;93.10;;;;;;928878;152;27308;-81
2022/10/13 10:06:25;;;;;;;8.85;8.03;;;18.40;93.00;;;;;;930390;149;27336;-82
2022/10/13 10:09:03;;;;;;;9.73;8.15;;;18.30;92.90;;;;;;931814;149;27317;-81
2022/10/13 10:11:31;;;;;;;9.63;7.72;;;18.10;92.90;;;;;;929088;151;27838;-82
2022/10/13 10:13:57;;;;;;;9.68;8.15;;;18.00;93.00;;;;;;928586;149;27461;-81
2022/10/13 10:16:35;;;;;;;9.43;8.30;;;17.80;93.50;;;;;;930302;152;27347;-81
2022/10/13 10:19:20;;;;;;;10.28;7.78;;;17.80;94.10;;;;;;929918;152;27502;-81
2022/10/13 10:21:49;;;;;;;9.03;8.10;;;17.70;94.40;;;;;;930431;149;27290;-80
2022/10/13 10:24:19;;;;;;;10.05;7.95;;;17.60;94.60;;;;;;929429;152;27372;-80
2022/10/13 10:26:54;;;;;;;9.45;8.45;;;17.50;94.90;;;;;;930473;149;27457;-81
2022/10/13 10:29:42;;;;;;;9.43;7.90;;;17.50;95.00;;;;;;930206;149;27705;-81
2022/10/13 10:32:27;;;;;;;16.15;9.00;;;17.50;95.10;;;;;;930679;149;27370;-82
2022/10/13 10:34:59;;;;;;;8.75;7.87;;;17.40;95.10;;;;;;928856;152;27335;-83
2022/10/13 10:37:38;;;;;;;9.78;8.80;;;17.40;95.20;;;;;;911107;151;27472;-81
2022/10/13 10:40:26;;;;;;;10.88;9.30;;;17.30;95.30;;;;;;929894;152;27468;-82
2022/10/13 10:42:52;;;;;;;10.55;8.50;;;17.30;95.40;;;;;;929761;149;27421;-81
2022/10/13 10:45:28;;;;;;;10.23;8.28;;;17.30;95.50;;;;;;929925;152;27278;-81
2022/10/13 10:47:57;;;;;;;9.90;8.90;;;17.20;95.60;;;;;;931990;149;27404;-81
2022/10/13 10:50:24;;;;;;;9.58;8.58;;;17.20;95.70;;;;;;932012;149;27386;-80
2022/10/13 10:52:53;;;;;;;9.65;8.40;;;17.20;95.80;;;;;;932462;149;27374;-81
2022/10/13 10:55:20;;;;;;;10.68;8.90;;;17.20;96.10;;;;;;930176;152;27406;-80
2022/10/13 10:57:46;;;;;;;9.83;8.50;;;17.20;96.20;;;;;;930474;149;27327;-80
2022/10/13 11:00:18;;;;;;;10.65;8.63;;;17.20;96.60;;;;;;929717;152;27407;-80
2022/10/13 11:03:00;;;;;;;10.53;9.10;;;17.20;96.80;;;;;;929203;150;27372;-81
2022/10/13 11:05:45;;;;;;;11.85;8.53;;;17.20;96.80;;;;;;929925;149;27318;-82
2022/10/13 11:08:12;;;;;;;9.85;8.30;;;17.20;96.80;;;;;;930371;149;27444;-82
2022/10/13 11:10:38;;;;;;;9.53;8.63;;;17.20;97.00;;;;;;929474;149;27429;-83
2022/10/13 11:13:11;;;;;;;11.75;8.80;;;17.20;97.50;;;;;;931436;152;27364;-84
2022/10/13 11:15:43;;;;;;;9.58;8.60;;;17.20;98.20;;;;;;906671;151;27418;-82
2022/10/13 11:18:43;;;;;;;11.53;8.40;;;17.30;98.90;;;;;;931522;149;27460;-84
2022/10/13 11:21:10;;;;;;;11.55;8.55;;;17.40;99.30;;;;;;924798;152;27457;-83
2022/10/13 11:23:37;;;;;;;11.43;8.43;;;17.50;99.50;;;;;;932400;149;27362;-83
2022/10/13 11:26:24;;;;;;;8.93;8.03;;;17.60;99.70;;;;;;933104;148;27424;-83
2022/10/13 11:28:51;;;;;;;10.25;8.00;;;17.80;99.60;;;;;;928426;149;27389;-82
2022/10/13 11:31:27;;;;;;;11.75;8.93;;;17.90;99.20;;;;;;932573;149;27305;-80
2022/10/13 11:33:53;;;;;;;10.28;9.13;;;18.10;99.10;;;;;;933210;149;27461;-82
2022/10/13 11:36:38;;;;;;;10.93;8.88;;;18.20;98.50;;;;;;933037;149;27376;-83
2022/10/13 11:39:29;;;;;;;13.03;8.73;;;18.40;97.80;;;;;;933549;149;27401;-82
2022/10/13 11:42:18;;;;;;;10.75;8.78;;;18.50;96.90;;;;;;932041;149;27418;-83
2022/10/13 11:44:58;;;;;;;11.10;8.78;;;18.60;96.60;;;;;;930909;149;27459;-83
2022/10/13 11:47:53;;;;;;;10.15;7.67;;;18.70;96.30;;;;;;934627;149;27359;-82
2022/10/13 11:50:29;;;;;;;10.03;8.55;;;18.70;96.00;;;;;;931932;149;27482;-83
2022/10/13 11:53:23;;;;;;;9.03;8.13;;;18.90;95.90;;;;;;931708;149;27360;-82
2022/10/13 11:55:55;;;;;;;10.35;8.75;;;18.90;95.80;;;;;;934127;149;27459;-83
2022/10/13 11:58:30;;;;;;;9.08;8.20;;;19.10;95.60;;;;;;933432;149;27487;-82
2022/10/13 12:01:00;;;;;;;8.80;7.55;;;19.20;95.20;;;;;;932227;149;27364;-83
2022/10/13 12:03:26;;;;;;;9.28;8.13;;;19.20;94.60;;;;;;930826;149;27419;-84
2022/10/13 12:05:53;;;;;;;9.08;7.15;;;19.30;94.00;;;;;;929481;152;27328;-84
2022/10/13 12:08:20;;;;;;;9.33;7.87;;;19.40;93.40;;;;;;934990;149;27316;-81
2022/10/13 12:10:46;;;;;;;8.35;7.35;;;19.40;93.30;;;;;;931827;149;27372;-84
2022/10/13 12:13:18;;;;;;;8.13;7.30;;;19.40;93.30;;;;;;930284;149;27486;-84
2022/10/13 12:15:45;;;;;;;9.08;6.97;;;19.50;93.70;;;;;;932196;149;27327;-83
2022/10/13 12:18:20;;;;;;;9.55;7.58;;;19.60;93.70;;;;;;932950;149;27385;-84
2022/10/13 12:21:02;;;;;;;7.87;6.40;;;19.70;93.30;;;;;;928708;149;27428;-84
2022/10/13 12:23:28;;;;;;;8.18;7.37;;;19.70;92.80;;;;;;932014;149;28437;-84
2022/10/13 12:25:58;;;;;;;13.45;8.20;;;19.70;92.30;;;;;;931189;149;27361;-84
2022/10/13 12:28:24;;;;;;;12.07;8.05;;;19.80;92.00;;;;;;933529;149;27349;-83
2022/10/13 12:30:51;;;;;;;8.93;7.35;;;19.80;91.70;;;;;;932495;149;27387;-82
2022/10/13 12:33:17;;;;;;;8.30;7.05;;;19.70;91.30;;;;;;933011;149;27444;-84
2022/10/13 12:35:44;;;;;;;7.95;7.12;;;19.70;91.30;;;;;;931190;149;27474;-84
2022/10/13 12:38:10;;;;;;;7.67;6.87;;;19.70;91.50;;;;;;932785;149;27388;-83
2022/10/13 12:40:37;;;;;;;7.15;6.50;;;19.70;91.70;;;;;;932465;149;27328;-83
2022/10/13 12:43:04;;;;;;;7.12;6.42;;;19.70;91.90;;;;;;933072;149;27322;-82
2022/10/13 12:45:30;;;;;;;6.80;6.15;;;19.80;91.90;;;;;;932264;149;27456;-84
2022/10/13 12:47:57;;;;;;;6.17;5.58;;;19.80;92.00;;;;;;932529;149;27410;-84
2022/10/13 12:50:29;;;;;;;6.22;5.62;;;19.80;91.90;;;;;;932429;149;27344;-84